Time;durP1;ratioP1;P1;durP2;ratioP2;P2;SDS_P1;SDS_P2;PMS_P1;PMS_P2;Temp;Humidity;BMP_temperature;BMP_pressure;BME280_temperature;BME280_humidity;BME280_pressure;Samples;Min_cycle;Max_cycle;Signal;HPM_P1;HPM_P2
2023/06/15 00:00:12;;;;;;;8.93;2.80;;;20.00;93.60;;;;;;7283959;19;20189;-77
2023/06/15 00:02:39;;;;;;;8.73;2.53;;;20.00;94.20;;;;;;7287721;19;20220;-78
2023/06/15 00:05:05;;;;;;;8.03;2.67;;;20.00;94.80;;;;;;7289116;19;20304;-78
2023/06/15 00:07:31;;;;;;;5.83;2.60;;;19.90;95.30;;;;;;7288477;19;20225;-77
2023/06/15 00:09:56;;;;;;;6.50;2.80;;;19.90;95.80;;;;;;7309234;19;20192;-78
2023/06/15 00:12:23;;;;;;;5.17;3.20;;;19.90;96.40;;;;;;7287408;19;20189;-78
2023/06/15 00:14:49;;;;;;;6.47;2.90;;;19.80;97.00;;;;;;7288249;19;20664;-78
2023/06/15 00:17:14;;;;;;;7.73;2.63;;;19.80;97.30;;;;;;7288211;19;20185;-78
2023/06/15 00:19:41;;;;;;;4.37;2.80;;;19.70;98.10;;;;;;7288221;19;20201;-78
2023/06/15 00:22:14;;;;;;;5.13;2.43;;;19.70;98.70;;;;;;7287536;19;20193;-78
2023/06/15 00:24:41;;;;;;;6.07;2.70;;;19.80;99.60;;;;;;7287927;19;20540;-78
2023/06/15 00:27:08;;;;;;;5.67;2.60;;;19.80;99.90;;;;;;7287055;19;20189;-78
2023/06/15 00:29:34;;;;;;;6.17;2.60;;;19.90;99.90;;;;;;7284046;19;20223;-78
2023/06/15 00:32:00;;;;;;;6.33;2.60;;;19.70;99.90;;;;;;7285988;19;20196;-77
2023/06/15 00:34:25;;;;;;;5.33;2.57;;;19.60;99.90;;;;;;7309775;19;20211;-78
2023/06/15 00:36:51;;;;;;;4.87;2.80;;;19.60;99.90;;;;;;7287914;19;20193;-78
2023/06/15 00:39:18;;;;;;;7.23;2.90;;;19.60;99.90;;;;;;7286903;19;20653;-78
2023/06/15 00:41:44;;;;;;;6.70;3.00;;;19.60;99.90;;;;;;7285229;19;20683;-78
2023/06/15 00:44:10;;;;;;;6.03;2.90;;;19.50;99.90;;;;;;7287685;19;20188;-78
2023/06/15 00:46:37;;;;;;;6.80;2.80;;;19.50;99.90;;;;;;7287247;19;20691;-78
2023/06/15 00:49:04;;;;;;;6.23;2.87;;;19.40;99.90;;;;;;7286182;19;20195;-78
2023/06/15 00:51:32;;;;;;;5.37;2.80;;;19.30;99.90;;;;;;7284331;19;20187;-77
2023/06/15 00:53:59;;;;;;;5.93;2.97;;;19.20;99.90;;;;;;7302332;19;20191;-78
2023/06/15 00:56:29;;;;;;;8.93;3.00;;;19.30;99.90;;;;;;7309220;19;20215;-77
2023/06/15 00:58:56;;;;;;;5.87;3.00;;;19.20;99.90;;;;;;7286419;19;20615;-78
2023/06/15 01:01:23;;;;;;;6.00;2.87;;;19.20;99.90;;;;;;7286196;19;20664;-78
2023/06/15 01:03:49;;;;;;;9.13;2.80;;;19.10;99.90;;;;;;7287069;19;20182;-77
2023/06/15 01:06:16;;;;;;;6.30;2.93;;;19.10;99.90;;;;;;7286510;19;20228;-77
2023/06/15 01:08:45;;;;;;;5.03;2.83;;;19.00;99.90;;;;;;7286723;19;20184;-77
2023/06/15 01:11:13;;;;;;;6.43;2.93;;;18.90;99.90;;;;;;7284394;19;20553;-77
2023/06/15 01:13:39;;;;;;;5.73;2.87;;;18.90;99.90;;;;;;7285223;19;20187;-78
2023/06/15 01:16:10;;;;;;;8.27;3.50;;;18.90;99.90;;;;;;7284957;19;20188;-77
2023/06/15 01:18:41;;;;;;;7.17;3.23;;;18.80;99.90;;;;;;7286504;19;20702;-78
2023/06/15 01:21:09;;;;;;;8.10;3.27;;;18.80;99.90;;;;;;7286022;19;20667;-77
2023/06/15 01:24:18;;;;;;;5.53;2.83;;;18.80;99.90;;;;;;7286142;19;20590;-77
2023/06/15 01:26:49;;;;;;;7.67;3.40;;;18.70;99.90;;;;;;7182755;19;2006671;-78
2023/06/15 01:29:19;;;;;;;7.27;3.20;;;18.80;99.90;;;;;;7284396;19;20212;-77
2023/06/15 01:31:46;;;;;;;6.07;3.07;;;18.80;99.90;;;;;;7284931;19;20198;-78
2023/06/15 01:34:12;;;;;;;6.70;2.90;;;18.70;99.90;;;;;;7284643;19;20200;-78
2023/06/15 01:36:40;;;;;;;9.37;3.70;;;18.70;99.90;;;;;;7286286;19;20575;-78
2023/06/15 01:39:07;;;;;;;6.60;3.20;;;18.60;99.90;;;;;;7286523;19;20248;-78
2023/06/15 01:41:34;;;;;;;9.30;3.30;;;18.60;99.90;;;;;;7284928;19;20185;-77
2023/06/15 01:44:03;;;;;;;8.40;3.27;;;18.50;99.90;;;;;;7286424;19;20188;-77
2023/06/15 01:46:29;;;;;;;8.17;3.40;;;18.40;99.90;;;;;;7287549;19;20191;-77
2023/06/15 01:48:55;;;;;;;7.63;3.53;;;18.30;99.90;;;;;;7306653;19;20188;-78
2023/06/15 01:51:23;;;;;;;5.70;3.17;;;18.30;99.90;;;;;;7285639;19;20607;-77
2023/06/15 01:53:49;;;;;;;7.47;3.50;;;18.20;99.90;;;;;;7285022;19;20201;-78
2023/06/15 01:56:16;;;;;;;6.33;3.27;;;18.20;99.90;;;;;;7284920;19;20195;-77
2023/06/15 01:58:42;;;;;;;7.17;3.20;;;18.00;99.90;;;;;;7285957;19;20219;-78
2023/06/15 02:01:08;;;;;;;6.97;3.60;;;17.90;99.90;;;;;;7283222;19;20197;-77
2023/06/15 02:03:34;;;;;;;6.57;3.37;;;17.90;99.90;;;;;;7285272;19;20681;-78
2023/06/15 02:05:59;;;;;;;7.27;3.17;;;17.80;99.90;;;;;;7284837;19;20743;-77
2023/06/15 02:08:25;;;;;;;5.37;3.27;;;17.70;99.90;;;;;;7305300;19;20190;-77
2023/06/15 02:10:52;;;;;;;6.73;3.73;;;17.60;99.90;;;;;;7284327;19;20185;-78
2023/06/15 02:13:18;;;;;;;7.20;3.63;;;17.50;99.90;;;;;;7282674;19;20663;-77
2023/06/15 02:15:43;;;;;;;4.93;3.30;;;17.40;99.90;;;;;;7282360;19;20291;-78
2023/06/15 02:18:14;;;;;;;7.43;3.50;;;17.40;99.90;;;;;;7283980;19;20181;-77
2023/06/15 02:20:41;;;;;;;7.10;3.60;;;17.40;99.90;;;;;;7282287;19;20947;-77
2023/06/15 02:23:07;;;;;;;8.33;3.87;;;17.50;99.90;;;;;;7281455;19;20288;-78
2023/06/15 02:25:32;;;;;;;9.07;3.70;;;17.40;99.90;;;;;;7282091;19;20192;-77
2023/06/15 02:27:58;;;;;;;7.43;3.53;;;17.40;99.90;;;;;;7289214;19;20222;-77
2023/06/15 02:30:27;;;;;;;8.07;3.90;;;17.50;99.90;;;;;;7301474;19;20648;-77
2023/06/15 02:32:53;;;;;;;7.70;3.77;;;17.50;99.90;;;;;;7283051;19;20191;-77
2023/06/15 02:35:20;;;;;;;6.77;3.67;;;17.50;99.90;;;;;;7282847;19;20204;-78
2023/06/15 02:37:46;;;;;;;10.53;3.40;;;17.60;99.90;;;;;;7283423;19;20200;-78
2023/06/15 02:40:12;;;;;;;8.40;3.80;;;17.50;99.90;;;;;;7283105;19;20833;-77
2023/06/15 02:42:39;;;;;;;7.47;3.47;;;17.50;99.90;;;;;;7284479;19;20199;-78
2023/06/15 02:45:06;;;;;;;6.87;4.00;;;17.50;99.90;;;;;;7282371;19;20602;-77
2023/06/15 02:47:34;;;;;;;6.77;3.63;;;17.60;99.90;;;;;;7282308;19;20204;-77
2023/06/15 02:50:00;;;;;;;6.73;3.80;;;17.60;99.90;;;;;;7284523;19;20188;-77
2023/06/15 02:52:31;;;;;;;7.07;3.73;;;17.60;99.90;;;;;;7282241;19;20185;-77
2023/06/15 02:54:59;;;;;;;8.63;3.80;;;17.60;99.90;;;;;;7292095;19;20652;-78
2023/06/15 02:57:25;;;;;;;8.63;4.07;;;17.50;99.90;;;;;;7304816;19;20188;-78
2023/06/15 03:00:09;;;;;;;8.33;4.00;;;17.50;99.90;;;;;;7181463;19;2004831;-77
2023/06/15 03:02:38;;;;;;;7.90;4.13;;;17.40;99.90;;;;;;7282688;19;20193;-78
2023/06/15 03:05:04;;;;;;;6.33;3.80;;;17.40;99.90;;;;;;7283743;19;20214;-77
2023/06/15 03:07:41;;;;;;;6.70;4.00;;;17.30;99.90;;;;;;7282714;19;20192;-77
2023/06/15 03:10:27;;;;;;;9.07;4.10;;;17.30;99.90;;;;;;7282483;19;20192;-77
2023/06/15 03:12:53;;;;;;;10.30;3.83;;;17.30;99.90;;;;;;7292035;19;20200;-77
2023/06/15 03:15:19;;;;;;;6.83;4.13;;;17.20;99.90;;;;;;7282269;19;20282;-77
2023/06/15 03:17:45;;;;;;;7.27;4.30;;;17.20;99.90;;;;;;7280338;19;20200;-77
2023/06/15 03:20:14;;;;;;;8.97;4.23;;;17.20;99.90;;;;;;7282732;19;20193;-78
2023/06/15 03:22:40;;;;;;;7.73;4.20;;;17.10;99.90;;;;;;7280985;19;20193;-78
2023/06/15 03:25:11;;;;;;;7.87;4.67;;;17.10;99.90;;;;;;7281270;19;20248;-77
2023/06/15 03:27:38;;;;;;;6.80;4.33;;;16.90;99.90;;;;;;7281753;19;20194;-77
2023/06/15 03:30:10;;;;;;;9.70;4.77;;;16.90;99.90;;;;;;7282299;19;20198;-77
2023/06/15 03:32:37;;;;;;;9.47;4.27;;;16.90;99.90;;;;;;7281885;19;20199;-78
2023/06/15 03:35:04;;;;;;;8.70;4.43;;;16.90;99.90;;;;;;7286883;19;20781;-78
2023/06/15 03:37:31;;;;;;;7.47;4.23;;;17.00;99.90;;;;;;7288887;19;20215;-79
2023/06/15 03:39:57;;;;;;;9.00;4.00;;;17.00;99.90;;;;;;7305783;19;20189;-78
2023/06/15 03:42:23;;;;;;;8.87;4.40;;;16.90;99.90;;;;;;7303197;19;20728;-78
2023/06/15 03:44:49;;;;;;;8.43;4.40;;;16.80;99.90;;;;;;7287788;19;20196;-78
2023/06/15 03:47:16;;;;;;;7.40;4.37;;;16.70;99.90;;;;;;7289680;19;20252;-80
2023/06/15 03:49:42;;;;;;;8.13;4.50;;;16.70;99.90;;;;;;7288826;19;20551;-79
2023/06/15 03:52:08;;;;;;;8.87;4.70;;;16.80;99.90;;;;;;7288813;19;20200;-78
2023/06/15 03:54:34;;;;;;;8.93;4.37;;;16.80;99.90;;;;;;7288467;19;20244;-79
2023/06/15 03:56:59;;;;;;;8.73;4.53;;;16.80;99.90;;;;;;7287176;19;20193;-78
2023/06/15 03:59:27;;;;;;;9.43;4.87;;;16.80;99.90;;;;;;7310585;19;20186;-78
2023/06/15 04:01:52;;;;;;;7.53;4.20;;;16.80;99.90;;;;;;7287713;19;20315;-78
2023/06/15 04:04:18;;;;;;;9.53;4.43;;;16.80;99.90;;;;;;7287670;19;20191;-78
2023/06/15 04:06:46;;;;;;;7.90;4.40;;;16.80;99.90;;;;;;7287824;19;20189;-78
2023/06/15 04:09:14;;;;;;;7.93;4.57;;;16.80;99.90;;;;;;7288053;19;20200;-78
2023/06/15 04:11:41;;;;;;;9.70;4.70;;;16.90;99.90;;;;;;7286628;19;20651;-78
2023/06/15 04:14:06;;;;;;;7.83;4.67;;;16.90;99.90;;;;;;7287543;19;20181;-78
2023/06/15 04:16:33;;;;;;;11.73;4.67;;;16.90;99.90;;;;;;7288186;19;20196;-78
2023/06/15 04:18:59;;;;;;;9.50;4.70;;;17.00;99.90;;;;;;7290313;19;20188;-78
2023/06/15 04:21:25;;;;;;;11.43;4.77;;;17.10;99.90;;;;;;7309835;19;20182;-79
2023/06/15 04:23:51;;;;;;;8.90;4.40;;;17.20;99.90;;;;;;7287586;19;20212;-78
2023/06/15 04:26:18;;;;;;;8.27;4.30;;;17.50;99.90;;;;;;7288234;19;20199;-80
2023/06/15 04:28:45;;;;;;;8.47;4.50;;;17.60;99.90;;;;;;7288185;19;20192;-78
2023/06/15 04:31:17;;;;;;;8.27;4.43;;;18.10;99.90;;;;;;7287659;19;20496;-78
2023/06/15 04:33:46;;;;;;;9.23;4.20;;;19.40;99.90;;;;;;7286815;19;20268;-79
2023/06/15 04:36:13;;;;;;;12.63;4.40;;;20.60;99.90;;;;;;7287325;19;20196;-78
2023/06/15 04:38:49;;;;;;;8.87;4.10;;;21.80;99.90;;;;;;7287811;19;20581;-79
2023/06/15 04:41:22;;;;;;;11.97;4.17;;;22.90;99.90;;;;;;7286664;19;20212;-79
2023/06/15 04:43:48;;;;;;;9.77;4.00;;;23.60;99.90;;;;;;7287959;19;20206;-78
2023/06/15 04:46:14;;;;;;;9.10;3.87;;;24.20;99.90;;;;;;7286016;19;20193;-79
2023/06/15 04:48:43;;;;;;;10.50;4.00;;;24.70;99.90;;;;;;7287894;19;20203;-79
2023/06/15 04:51:11;;;;;;;6.90;4.00;;;25.00;99.90;;;;;;7286148;19;20272;-80
2023/06/15 04:53:42;;;;;;;8.03;3.97;;;25.20;99.90;;;;;;7287095;19;20192;-79
2023/06/15 04:56:08;;;;;;;10.00;4.05;;;25.80;99.90;;;;;;7286579;19;20192;-79
2023/06/15 04:58:35;;;;;;;7.53;4.13;;;25.90;99.90;;;;;;7286305;19;20206;-79
2023/06/15 05:01:01;;;;;;;8.55;4.13;;;26.20;99.90;;;;;;7285586;19;20198;-80
2023/06/15 05:03:27;;;;;;;6.80;3.60;;;26.20;99.20;;;;;;7308196;19;20230;-78
2023/06/15 05:05:53;;;;;;;9.88;3.90;;;26.90;98.40;;;;;;7285309;19;20265;-78
2023/06/15 05:08:19;;;;;;;7.13;3.95;;;27.80;97.10;;;;;;7285658;19;20174;-80
2023/06/15 05:10:45;;;;;;;8.57;3.83;;;28.70;95.30;;;;;;7288789;19;20181;-94
2023/06/15 05:13:11;;;;;;;7.97;4.00;;;29.40;92.50;;;;;;7288449;19;20196;-93
2023/06/15 05:15:37;;;;;;;11.38;4.03;;;29.70;91.10;;;;;;7291318;19;20280;-92
2023/06/15 05:18:04;;;;;;;10.65;3.47;;;30.00;90.50;;;;;;7289098;19;20189;-91
2023/06/15 05:20:30;;;;;;;8.23;3.67;;;30.50;87.70;;;;;;7289876;19;20188;-91
2023/06/15 05:22:56;;;;;;;9.25;3.60;;;31.30;85.60;;;;;;7311056;19;20702;-89
2023/06/15 05:25:22;;;;;;;9.30;4.00;;;31.70;82.00;;;;;;7295198;19;20177;-89
2023/06/15 05:27:49;;;;;;;9.73;4.05;;;32.10;79.60;;;;;;7294320;19;20184;-84
2023/06/15 05:30:16;;;;;;;7.30;4.15;;;32.30;77.90;;;;;;7288713;19;20217;-85
2023/06/15 05:32:42;;;;;;;10.57;4.03;;;32.20;77.90;;;;;;7288991;19;20191;-84
2023/06/15 05:35:10;;;;;;;10.57;3.45;;;32.10;77.20;;;;;;7288027;19;20189;-84
2023/06/15 05:37:37;;;;;;;10.23;4.00;;;32.50;76.40;;;;;;7288202;19;20268;-84
2023/06/15 05:40:04;;;;;;;6.90;3.50;;;32.70;75.00;;;;;;7286888;19;20209;-84
2023/06/15 05:42:31;;;;;;;7.75;3.97;;;32.80;72.80;;;;;;7286631;19;20653;-84
2023/06/15 05:44:57;;;;;;;10.00;4.00;;;33.50;71.10;;;;;;7307515;19;20214;-83
2023/06/15 05:47:24;;;;;;;10.65;3.95;;;33.80;69.10;;;;;;7300210;19;20181;-83
2023/06/15 05:49:50;;;;;;;6.85;3.45;;;34.20;68.60;;;;;;7284898;19;20196;-84
2023/06/15 05:52:17;;;;;;;7.40;3.83;;;33.90;67.40;;;;;;7286626;19;20671;-88
2023/06/15 05:54:45;;;;;;;13.90;4.07;;;33.70;67.70;;;;;;7286672;19;20609;-87
2023/06/15 05:57:12;;;;;;;8.90;3.50;;;33.70;68.30;;;;;;7287746;19;20188;-88
2023/06/15 05:59:38;;;;;;;7.10;3.58;;;34.30;67.30;;;;;;7286480;19;20193;-88
2023/06/15 06:02:04;;;;;;;10.52;3.85;;;34.20;66.70;;;;;;7287311;19;20189;-88
2023/06/15 06:04:34;;;;;;;10.07;3.78;;;34.00;65.70;;;;;;7286091;19;20185;-88
2023/06/15 06:07:02;;;;;;;7.63;3.22;;;34.40;64.60;;;;;;7288836;19;20200;-89
2023/06/15 06:09:28;;;;;;;6.53;3.42;;;34.40;63.90;;;;;;7301821;19;20189;-88
2023/06/15 06:11:55;;;;;;;7.25;3.38;;;34.80;62.70;;;;;;7306224;19;20272;-90
2023/06/15 06:14:21;;;;;;;8.25;3.60;;;35.40;61.40;;;;;;7287231;19;20204;-89
2023/06/15 06:16:47;;;;;;;6.05;3.30;;;35.20;61.40;;;;;;7288604;19;21795;-88
2023/06/15 06:19:15;;;;;;;6.80;3.13;;;35.10;61.30;;;;;;7285546;19;20628;-89
2023/06/15 06:21:42;;;;;;;6.30;3.22;;;34.90;61.70;;;;;;7288695;19;20282;-89
2023/06/15 06:24:08;;;;;;;6.20;3.38;;;34.60;60.20;;;;;;7286764;19;20192;-89
2023/06/15 06:26:37;;;;;;;5.28;2.95;;;34.50;59.80;;;;;;7286592;19;20189;-89
2023/06/15 06:29:03;;;;;;;6.78;3.10;;;34.70;59.00;;;;;;7288176;19;20192;-89
2023/06/15 06:31:29;;;;;;;5.93;2.78;;;34.80;58.90;;;;;;7292060;19;20244;-90
2023/06/15 06:33:56;;;;;;;5.43;3.20;;;34.80;58.40;;;;;;7308424;19;20196;-89
2023/06/15 06:36:22;;;;;;;7.63;3.00;;;35.10;58.60;;;;;;7288155;19;20189;-89
2023/06/15 06:38:47;;;;;;;4.60;2.58;;;34.40;59.20;;;;;;7285595;19;20202;-90
2023/06/15 06:41:14;;;;;;;5.47;2.58;;;33.90;60.30;;;;;;7288878;19;20342;-90
2023/06/15 06:43:40;;;;;;;4.18;2.60;;;33.90;60.90;;;;;;7286282;19;20196;-89
2023/06/15 06:46:05;;;;;;;7.93;2.50;;;34.10;59.70;;;;;;7285140;19;20195;-89
2023/06/15 06:48:31;;;;;;;6.45;2.60;;;34.10;58.30;;;;;;7286455;19;20189;-86
2023/06/15 06:50:57;;;;;;;8.05;2.78;;;34.00;59.30;;;;;;7305736;19;20188;-86
2023/06/15 06:53:23;;;;;;;8.98;2.53;;;33.90;59.20;;;;;;7286027;19;20291;-90
2023/06/15 06:55:49;;;;;;;8.95;2.58;;;34.30;58.80;;;;;;7285571;19;20185;-90
2023/06/15 06:58:15;;;;;;;3.63;2.10;;;34.80;58.20;;;;;;7287542;19;20202;-89
2023/06/15 07:00:41;;;;;;;5.05;2.20;;;35.40;57.70;;;;;;7285263;19;20189;-89
2023/06/15 07:03:07;;;;;;;5.97;2.40;;;35.00;56.70;;;;;;7285703;19;20189;-90
2023/06/15 07:05:33;;;;;;;5.22;2.05;;;34.30;57.60;;;;;;7285845;19;20196;-89
2023/06/15 07:07:58;;;;;;;6.03;2.17;;;33.30;57.80;;;;;;7292979;19;20193;-87
2023/06/15 07:10:24;;;;;;;7.20;2.40;;;33.90;58.30;;;;;;7302382;19;20557;-88
2023/06/15 07:12:55;;;;;;;4.05;2.35;;;33.70;57.50;;;;;;7284848;19;20201;-89
2023/06/15 07:15:21;;;;;;;7.18;2.45;;;34.00;58.20;;;;;;7285707;19;20208;-88
2023/06/15 07:17:47;;;;;;;6.97;2.10;;;33.20;58.10;;;;;;7285602;19;20181;-88
2023/06/15 07:20:12;;;;;;;5.28;2.35;;;33.50;58.60;;;;;;7284531;19;20656;-88
2023/06/15 07:22:38;;;;;;;6.30;2.30;;;34.50;58.10;;;;;;7283395;19;20244;-88
2023/06/15 07:25:04;;;;;;;6.30;2.35;;;34.30;57.60;;;;;;7283580;19;20180;-89
2023/06/15 07:27:30;;;;;;;5.40;2.15;;;34.20;58.00;;;;;;7282726;19;20184;-88
2023/06/15 07:29:55;;;;;;;5.05;2.65;;;34.10;57.40;;;;;;7305174;19;20190;-89
2023/06/15 07:32:22;;;;;;;5.50;2.22;;;33.70;57.80;;;;;;7284145;19;20181;-88
2023/06/15 07:34:48;;;;;;;5.15;2.50;;;34.00;57.20;;;;;;7284824;19;20197;-87
2023/06/15 07:37:14;;;;;;;7.55;2.38;;;34.60;56.30;;;;;;7285205;19;20207;-89
2023/06/15 07:39:39;;;;;;;7.05;2.35;;;34.50;56.30;;;;;;7286370;19;20216;-89
2023/06/15 07:42:06;;;;;;;6.28;2.28;;;34.40;56.10;;;;;;7283740;19;20234;-89
2023/06/15 07:44:32;;;;;;;3.45;2.30;;;34.00;55.60;;;;;;7284281;19;20205;-88
2023/06/15 07:46:58;;;;;;;3.97;2.30;;;32.80;56.60;;;;;;7304842;19;20188;-85
2023/06/15 07:49:23;;;;;;;4.97;2.15;;;32.80;57.70;;;;;;7293893;19;20181;-88
2023/06/15 07:51:49;;;;;;;6.47;2.60;;;33.60;56.90;;;;;;7282666;19;20189;-88
2023/06/15 07:54:15;;;;;;;6.63;2.30;;;34.30;56.40;;;;;;7283668;19;20212;-88
2023/06/15 07:56:42;;;;;;;6.82;2.60;;;34.40;55.20;;;;;;7283137;19;20225;-87
2023/06/15 07:59:07;;;;;;;3.95;2.30;;;35.00;55.20;;;;;;7284071;19;20668;-87
2023/06/15 08:01:33;;;;;;;4.13;2.13;;;34.60;55.20;;;;;;7282929;19;20188;-87
2023/06/15 08:04:00;;;;;;;5.00;2.30;;;35.70;56.40;;;;;;7290655;19;20234;-87
2023/06/15 08:06:25;;;;;;;6.55;2.40;;;35.60;53.70;;;;;;7304932;19;20185;-87
2023/06/15 08:08:51;;;;;;;3.80;2.25;;;35.10;54.60;;;;;;7284244;19;20289;-88
2023/06/15 08:11:17;;;;;;;4.00;2.45;;;34.10;54.70;;;;;;7282198;19;20192;-89
2023/06/15 08:13:43;;;;;;;6.47;2.90;;;34.60;55.40;;;;;;7282085;19;20200;-88
2023/06/15 08:16:08;;;;;;;6.25;2.75;;;33.90;56.20;;;;;;7281538;19;21022;-87
2023/06/15 08:18:34;;;;;;;7.95;2.65;;;34.00;55.10;;;;;;7283121;19;20920;-87
2023/06/15 08:21:00;;;;;;;5.63;2.63;;;34.30;55.40;;;;;;7285018;19;20193;-86
2023/06/15 08:23:26;;;;;;;5.40;2.40;;;34.30;55.40;;;;;;7311265;19;20191;-88
2023/06/15 08:25:52;;;;;;;6.25;2.53;;;34.50;56.10;;;;;;7283457;19;20181;-89
2023/06/15 08:28:21;;;;;;;10.13;2.70;;;34.80;54.40;;;;;;7288097;19;20197;-89
2023/06/15 08:30:47;;;;;;;4.00;2.38;;;35.60;54.70;;;;;;7289384;19;20188;-89
2023/06/15 08:33:13;;;;;;;4.35;2.10;;;35.50;53.10;;;;;;7289007;19;20180;-87
2023/06/15 08:35:38;;;;;;;6.22;2.75;;;35.40;54.60;;;;;;7287297;19;20776;-89
2023/06/15 08:38:04;;;;;;;5.40;2.50;;;35.30;53.20;;;;;;7289918;19;20283;-89
2023/06/15 08:40:30;;;;;;;7.65;2.80;;;34.30;54.30;;;;;;7289181;19;20279;-86
2023/06/15 08:42:58;;;;;;;4.78;2.80;;;34.00;54.50;;;;;;7312072;19;20675;-88
2023/06/15 08:45:29;;;;;;;5.75;2.50;;;33.70;54.60;;;;;;7289585;19;20187;-88
2023/06/15 08:47:58;;;;;;;5.97;2.63;;;33.40;55.70;;;;;;7288274;19;20209;-88
2023/06/15 08:50:24;;;;;;;4.22;2.30;;;33.50;55.90;;;;;;7288629;19;20181;-88
2023/06/15 08:52:50;;;;;;;3.58;2.20;;;33.70;55.40;;;;;;7288017;19;20196;-88
2023/06/15 08:55:18;;;;;;;5.85;2.30;;;33.80;55.50;;;;;;7289648;19;20198;-87
2023/06/15 08:57:44;;;;;;;4.38;2.30;;;34.80;55.00;;;;;;7289233;19;20200;-88
2023/06/15 09:00:10;;;;;;;4.35;2.47;;;36.30;54.80;;;;;;7290018;19;20200;-88
2023/06/15 09:02:42;;;;;;;5.65;2.60;;;35.90;52.10;;;;;;7289335;19;20188;-86
2023/06/15 09:05:08;;;;;;;3.70;2.28;;;35.30;53.80;;;;;;7288238;19;20188;-88
2023/06/15 09:07:35;;;;;;;5.78;2.03;;;35.30;52.20;;;;;;7287411;19;20245;-88
2023/06/15 09:10:11;;;;;;;5.20;2.38;;;35.50;52.70;;;;;;7289675;19;20284;-87
2023/06/15 09:12:45;;;;;;;7.88;2.55;;;35.40;53.30;;;;;;7289012;19;20189;-88
2023/06/15 09:15:17;;;;;;;4.97;2.28;;;35.70;53.20;;;;;;7287429;19;20672;-88
2023/06/15 09:17:43;;;;;;;5.10;2.10;;;35.40;51.10;;;;;;7288671;19;20252;-88
2023/06/15 09:20:09;;;;;;;4.43;2.25;;;35.00;51.00;;;;;;7288594;19;20185;-88
2023/06/15 09:22:45;;;;;;;4.88;2.40;;;35.10;52.10;;;;;;7288428;19;20195;-88
2023/06/15 09:25:21;;;;;;;4.18;2.20;;;34.60;52.00;;;;;;7287328;19;20188;-87
2023/06/15 09:28:00;;;;;;;5.57;2.28;;;35.80;52.20;;;;;;7287113;19;20192;-88
2023/06/15 09:30:39;;;;;;;6.30;2.30;;;36.20;51.50;;;;;;7288210;19;20217;-88
2023/06/15 09:33:13;;;;;;;6.57;2.30;;;35.70;51.30;;;;;;7184510;19;2004593;-88
2023/06/15 09:35:57;;;;;;;5.05;2.40;;;35.10;51.50;;;;;;7288508;19;20201;-88
2023/06/15 09:38:23;;;;;;;4.68;2.22;;;35.30;51.60;;;;;;7286967;19;20783;-87
2023/06/15 09:40:49;;;;;;;3.78;2.00;;;35.50;51.60;;;;;;7288056;19;20205;-88
2023/06/15 09:43:16;;;;;;;4.45;2.22;;;35.20;50.50;;;;;;7288226;19;20201;-88
2023/06/15 09:45:54;;;;;;;4.88;2.30;;;34.20;51.30;;;;;;7289212;19;20193;-87
2023/06/15 09:48:21;;;;;;;3.88;2.25;;;34.50;52.70;;;;;;7287420;19;20186;-87
2023/06/15 09:50:51;;;;;;;3.50;2.30;;;34.50;52.00;;;;;;7288328;19;21008;-87
2023/06/15 09:53:18;;;;;;;4.07;2.35;;;34.90;52.40;;;;;;7287956;19;20200;-88
2023/06/15 09:55:46;;;;;;;6.00;2.20;;;34.50;51.40;;;;;;7288082;19;20196;-89
2023/06/15 09:58:12;;;;;;;7.07;2.60;;;34.40;52.30;;;;;;7287791;19;20192;-88
2023/06/15 10:00:38;;;;;;;7.57;2.47;;;33.80;51.80;;;;;;7286624;19;20193;-88
2023/06/15 10:03:08;;;;;;;3.22;2.17;;;33.80;51.70;;;;;;7284888;19;20195;-88
2023/06/15 10:05:43;;;;;;;6.13;2.75;;;34.50;52.30;;;;;;7286517;19;20195;-88
2023/06/15 10:08:14;;;;;;;4.13;2.13;;;33.60;51.70;;;;;;7286497;19;20528;-89
2023/06/15 10:10:42;;;;;;;6.57;2.30;;;34.10;52.30;;;;;;7286145;19;20204;-89
2023/06/15 10:13:15;;;;;;;5.35;2.55;;;34.60;51.90;;;;;;7286630;19;20208;-89
2023/06/15 10:15:45;;;;;;;3.15;1.80;;;35.00;50.30;;;;;;7286017;19;20185;-89
2023/06/15 10:18:13;;;;;;;6.28;2.15;;;35.20;50.60;;;;;;7286479;19;20280;-88
2023/06/15 10:20:40;;;;;;;4.35;2.30;;;34.40;51.10;;;;;;7286154;19;20192;-88
2023/06/15 10:23:13;;;;;;;4.43;2.20;;;34.20;50.10;;;;;;7285863;19;20185;-88
2023/06/15 10:25:42;;;;;;;4.82;2.30;;;34.10;50.70;;;;;;7285470;19;20582;-88
2023/06/15 10:28:11;;;;;;;5.22;2.17;;;33.50;51.90;;;;;;7287800;19;20183;-89
2023/06/15 10:30:53;;;;;;;5.32;2.55;;;34.20;51.90;;;;;;7288014;19;20213;-89
2023/06/15 10:33:40;;;;;;;4.35;2.08;;;34.00;50.90;;;;;;7285527;19;20205;-87
2023/06/15 10:36:27;;;;;;;5.05;2.50;;;34.30;51.50;;;;;;7184105;19;2004611;-88
2023/06/15 10:39:14;;;;;;;5.88;2.58;;;34.30;51.50;;;;;;7284983;19;20184;-89
2023/06/15 10:41:40;;;;;;;4.90;2.28;;;34.40;51.30;;;;;;7184420;19;2004815;-88
2023/06/15 10:44:05;;;;;;;4.15;2.17;;;34.90;50.80;;;;;;7284536;19;20222;-89
2023/06/15 10:46:34;;;;;;;4.55;2.42;;;35.80;48.80;;;;;;7285988;19;20188;-88
2023/06/15 10:49:05;;;;;;;5.82;2.35;;;36.10;49.40;;;;;;7288847;19;20189;-88
2023/06/15 10:51:35;;;;;;;5.50;2.80;;;37.00;49.70;;;;;;7282229;19;20176;-86
2023/06/15 10:54:04;;;;;;;5.88;3.05;;;37.70;47.90;;;;;;7284813;19;20214;-87
2023/06/15 10:56:31;;;;;;;5.10;2.40;;;36.90;48.30;;;;;;7285689;19;20185;-86
2023/06/15 10:59:04;;;;;;;4.13;2.50;;;36.30;49.90;;;;;;7308984;19;20188;-88
2023/06/15 11:01:32;;;;;;;4.43;2.28;;;35.00;48.80;;;;;;7270321;19;20212;-87
2023/06/15 11:04:21;;;;;;;5.50;2.63;;;35.70;49.10;;;;;;7286734;19;20198;-88
2023/06/15 11:06:56;;;;;;;6.95;2.47;;;36.10;48.10;;;;;;7296957;19;20188;-89
2023/06/15 11:09:24;;;;;;;4.00;2.55;;;36.10;48.60;;;;;;7296296;19;20197;-88
2023/06/15 11:11:50;;;;;;;6.13;2.53;;;35.70;49.30;;;;;;7293161;19;20185;-87
2023/06/15 11:14:19;;;;;;;3.30;2.15;;;35.60;48.80;;;;;;7287578;19;20199;-89
2023/06/15 11:16:45;;;;;;;5.68;2.72;;;35.50;47.50;;;;;;7287324;19;20192;-86
2023/06/15 11:19:11;;;;;;;6.30;2.20;;;35.40;47.90;;;;;;7284916;19;20640;-87
2023/06/15 11:21:41;;;;;;;7.82;2.50;;;34.30;47.80;;;;;;7284654;19;20180;-89
2023/06/15 11:24:13;;;;;;;4.10;2.33;;;34.40;48.90;;;;;;7283265;19;20286;-89
2023/06/15 11:26:40;;;;;;;4.75;2.30;;;34.20;49.40;;;;;;7290656;19;20193;-89
2023/06/15 11:29:07;;;;;;;4.53;2.63;;;34.00;50.40;;;;;;7291380;19;20208;-89
2023/06/15 11:31:34;;;;;;;5.68;2.72;;;34.60;49.80;;;;;;7290904;19;20196;-88
2023/06/15 11:34:00;;;;;;;4.80;2.33;;;34.30;49.70;;;;;;7296186;19;20188;-88
2023/06/15 11:36:26;;;;;;;7.47;2.53;;;33.80;49.20;;;;;;7306008;19;20227;-88
2023/06/15 11:38:53;;;;;;;6.72;2.65;;;33.70;49.20;;;;;;7285686;19;20225;-89
2023/06/15 11:41:20;;;;;;;6.30;2.70;;;33.40;49.10;;;;;;7284523;19;20704;-90
2023/06/15 11:43:48;;;;;;;6.43;2.60;;;33.70;48.50;;;;;;7285587;19;20248;-88
2023/06/15 11:46:17;;;;;;;5.53;2.60;;;33.80;49.00;;;;;;7284937;19;20189;-88
2023/06/15 11:48:44;;;;;;;7.28;2.90;;;34.50;49.70;;;;;;7286289;19;20193;-88
2023/06/15 11:51:11;;;;;;;8.15;2.90;;;34.80;49.00;;;;;;7285052;19;20211;-88
2023/06/15 11:53:39;;;;;;;5.40;2.50;;;35.30;50.00;;;;;;7283897;19;20205;-89
2023/06/15 11:56:15;;;;;;;6.35;2.47;;;35.00;48.90;;;;;;7291174;19;20656;-89
2023/06/15 11:58:45;;;;;;;8.90;2.88;;;34.60;48.80;;;;;;7292467;19;20189;-90
2023/06/15 12:01:15;;;;;;;8.50;3.30;;;35.10;50.10;;;;;;7289854;19;20208;-89
2023/06/15 12:03:49;;;;;;;6.38;2.63;;;35.10;49.90;;;;;;7291428;19;20208;-88
2023/06/15 12:06:17;;;;;;;8.43;2.72;;;34.10;48.90;;;;;;7291457;19;20418;-88
2023/06/15 12:08:45;;;;;;;6.55;2.55;;;33.30;50.10;;;;;;7290614;19;20679;-89
2023/06/15 12:11:11;;;;;;;3.83;2.30;;;32.00;50.90;;;;;;7290291;19;20193;-89
2023/06/15 12:13:38;;;;;;;8.32;2.75;;;30.90;52.70;;;;;;7288580;19;20189;-89
2023/06/15 12:16:03;;;;;;;6.65;2.90;;;30.00;53.00;;;;;;7290502;19;20185;-89
2023/06/15 12:18:30;;;;;;;6.88;2.60;;;29.80;54.20;;;;;;7300849;19;20606;-88
2023/06/15 12:20:55;;;;;;;7.75;2.95;;;30.00;53.30;;;;;;7313131;19;20302;-89
2023/06/15 12:23:28;;;;;;;6.38;2.60;;;30.00;53.60;;;;;;7291685;19;20185;-88
2023/06/15 12:25:57;;;;;;;6.55;2.67;;;30.10;54.40;;;;;;7290443;19;20173;-89
2023/06/15 12:28:24;;;;;;;9.45;2.90;;;30.40;52.80;;;;;;7288997;19;20199;-89
2023/06/15 12:30:51;;;;;;;6.65;2.97;;;30.60;52.40;;;;;;7290373;19;20245;-89
2023/06/15 12:33:30;;;;;;;7.47;2.70;;;30.80;52.10;;;;;;7289800;19;20196;-89
2023/06/15 12:35:59;;;;;;;4.95;2.63;;;30.60;52.40;;;;;;7289812;19;20181;-88
2023/06/15 12:38:27;;;;;;;6.40;3.00;;;30.30;52.80;;;;;;7289678;19;20252;-89
2023/06/15 12:40:53;;;;;;;6.82;2.70;;;29.90;53.80;;;;;;7285205;19;20187;-89
2023/06/15 12:43:20;;;;;;;8.85;2.85;;;29.90;53.10;;;;;;7289046;19;20193;-89
2023/06/15 12:45:46;;;;;;;11.10;3.58;;;30.00;53.90;;;;;;7288358;19;20184;-89
2023/06/15 12:48:13;;;;;;;7.80;2.88;;;30.30;54.80;;;;;;7290888;19;20648;-89